createdAt,value
2023-02-21T16:22:43.189Z,72.32
2023-02-21T16:30:31.803Z,71.41
2023-02-21T16:31:33.199Z,70.61
2023-02-21T16:32:36.405Z,71.09
2023-02-21T16:33:38.680Z,100.00
2023-02-21T16:34:39.970Z,100.00
2023-02-21T16:35:42.230Z,83.06
2023-02-21T16:36:43.501Z,76.89
2023-02-21T16:37:45.745Z,76.42
2023-02-21T16:38:47.057Z,74.08
2023-02-21T16:43:22.150Z,89.87
2023-02-21T16:44:23.481Z,95.76
2023-02-21T16:45:25.896Z,100.00
2023-02-21T16:46:30.132Z,100.00
2023-02-21T16:47:31.789Z,100.00
2023-02-21T16:48:34.146Z,100.00
2023-02-21T16:49:35.634Z,100.00
2023-02-21T16:51:46.231Z,100.00
2023-02-21T16:52:48.870Z,100.00
2023-02-21T16:54:59.872Z,100.00
2023-02-21T16:56:15.526Z,100.00
2023-02-21T16:57:17.216Z,100.00
2023-02-21T16:58:23.783Z,100.00
2023-02-21T16:59:26.639Z,100.00
2023-02-21T17:00:28.331Z,100.00
2023-02-21T17:01:32.504Z,100.00
2023-02-21T17:02:34.304Z,100.00
2023-02-21T17:03:37.061Z,100.00
2023-02-21T17:04:38.811Z,100.00
2023-02-21T17:05:41.414Z,100.00
2023-02-21T17:06:52.089Z,100.00
2023-02-21T17:07:54.893Z,100.00
2023-02-21T17:08:56.778Z,100.00
2023-02-21T17:09:59.379Z,100.00
2023-02-21T17:11:01.992Z,100.00
2023-02-21T17:12:06.376Z,100.00
2023-02-21T17:13:09.051Z,100.00
2023-02-21T17:14:10.691Z,100.00
2023-02-21T17:15:13.747Z,100.00
2023-02-21T17:16:15.504Z,100.00
2023-02-21T17:17:18.536Z,100.00
2023-02-21T17:18:24.226Z,100.00
2023-02-21T17:19:25.973Z,100.00
2023-02-21T17:20:29.124Z,100.00
2023-02-21T17:21:31.326Z,100.00
2023-02-21T17:22:34.229Z,100.00
2023-02-21T17:23:36.863Z,100.00
2023-02-21T17:24:39.816Z,100.00
2023-02-21T17:26:35.146Z,100.00
2023-02-21T17:27:37.121Z,100.00
2023-02-21T17:28:40.292Z,100.00
2023-02-21T17:29:41.934Z,100.00
2023-02-21T17:30:44.971Z,100.00
2023-02-21T17:31:46.861Z,100.00
2023-02-21T17:32:49.767Z,100.00
2023-02-21T17:33:52.682Z,100.00
2023-02-21T17:34:55.759Z,100.00
2023-02-21T17:35:57.443Z,100.00
2023-02-21T17:37:00.216Z,100.00
2023-02-21T17:38:02.832Z,100.00
2023-02-21T17:39:04.638Z,100.00
2023-02-21T17:40:07.627Z,100.00
2023-02-21T17:41:09.349Z,100.00
2023-02-21T17:42:13.381Z,100.00
2023-02-21T17:43:15.581Z,100.00
2023-02-21T17:44:19.086Z,100.00
2023-02-21T17:45:21.166Z,100.00
2023-02-21T17:46:23.960Z,100.00
2023-02-21T17:47:25.752Z,100.00
2023-02-21T17:48:28.402Z,100.00
2023-02-21T17:49:31.110Z,100.00
2023-02-21T17:50:32.741Z,100.00
2023-02-21T17:51:35.537Z,100.00
2023-02-21T17:52:37.256Z,100.00
2023-02-21T17:53:40.094Z,100.00
2023-02-21T17:54:41.818Z,100.00
2023-02-21T17:55:44.588Z,100.00
2023-02-21T17:56:47.571Z,100.00
2023-02-21T17:57:50.582Z,100.00
2023-02-21T17:58:55.066Z,100.00
2023-02-21T17:59:56.767Z,100.00
2023-02-21T18:00:59.650Z,100.00
2023-02-21T18:02:02.299Z,100.00
2023-02-21T18:03:06.605Z,100.00
2023-02-21T18:04:09.686Z,100.00
2023-02-21T18:05:12.677Z,100.00
2023-02-21T18:06:14.387Z,100.00
2023-02-21T18:07:17.128Z,100.00
2023-02-21T18:08:18.892Z,100.00
2023-02-21T18:09:21.660Z,100.00
2023-02-21T18:10:25.188Z,100.00
2023-02-21T18:11:26.839Z,100.00
2023-02-21T18:12:29.871Z,100.00
2023-02-21T18:13:32.926Z,100.00
2023-02-21T18:14:35.616Z,100.00
2023-02-21T18:15:37.703Z,100.00
2023-02-21T18:16:40.338Z,100.00
2023-02-21T18:17:41.971Z,100.00
2023-02-21T18:18:45.170Z,100.00
2023-02-21T18:19:46.958Z,100.00
2023-02-21T18:20:49.587Z,100.00
2023-02-21T18:21:52.224Z,100.00
2023-02-21T18:22:54.417Z,100.00
2023-02-21T18:23:57.014Z,100.00
2023-02-21T18:24:58.816Z,100.00
2023-02-21T18:26:01.428Z,100.00
2023-02-21T18:27:03.158Z,100.00
2023-02-21T18:28:06.012Z,100.00
2023-02-21T18:29:10.170Z,100.00
2023-02-21T18:30:12.321Z,100.00
2023-02-21T18:31:16.982Z,100.00
2023-02-21T18:32:18.945Z,100.00
2023-02-21T18:33:22.066Z,100.00
2023-02-21T18:34:23.745Z,100.00
2023-02-21T18:35:26.351Z,100.00
2023-02-21T18:36:29.034Z,100.00
2023-02-21T18:37:31.714Z,100.00
2023-02-21T18:38:33.370Z,100.00
2023-02-21T18:39:36.039Z,100.00
2023-02-21T18:40:44.531Z,100.00
2023-02-21T18:41:47.281Z,100.00
2023-02-21T18:42:48.930Z,100.00
2023-02-21T18:43:51.647Z,100.00
2023-02-21T18:44:55.671Z,100.00
2023-02-21T18:45:57.914Z,100.00
2023-02-21T18:47:01.617Z,100.00
2023-02-21T18:48:03.442Z,100.00
2023-02-21T18:49:06.068Z,100.00
2023-02-21T18:50:08.062Z,100.00
2023-02-21T18:51:11.267Z,100.00
2023-02-21T18:52:14.043Z,100.00
2023-02-21T18:53:17.007Z,100.00
2023-02-21T18:54:18.916Z,100.00
2023-02-21T18:55:21.530Z,100.00
2023-02-21T18:56:24.465Z,100.00
2023-02-21T18:57:26.105Z,100.00
2023-02-21T18:58:28.719Z,100.00
2023-02-21T18:59:30.392Z,100.00
2023-02-21T19:00:36.241Z,100.00
2023-02-21T19:01:39.021Z,100.00
2023-02-21T19:02:41.718Z,100.00
2023-02-21T19:03:44.543Z,100.00
2023-02-21T19:04:47.218Z,100.00
2023-02-21T19:05:52.418Z,100.00
2023-02-21T19:06:55.197Z,100.00
2023-02-21T19:07:58.388Z,100.00
2023-02-21T19:09:02.310Z,100.00
2023-02-21T19:10:04.712Z,100.00
2023-02-21T19:11:07.333Z,100.00
2023-02-21T19:12:10.041Z,100.00
2023-02-21T19:13:12.758Z,100.00
2023-02-21T19:14:14.397Z,100.00
2023-02-21T19:15:17.285Z,100.00
2023-02-21T19:16:22.623Z,100.00
2023-02-21T19:17:24.405Z,100.00
2023-02-21T19:18:28.169Z,100.00
2023-02-21T19:19:32.137Z,100.00
2023-02-21T19:20:33.933Z,100.00
2023-02-21T19:21:36.564Z,100.00
2023-02-21T19:22:38.322Z,100.00
2023-02-21T19:23:41.029Z,100.00
2023-02-21T19:24:42.681Z,100.00
2023-02-21T19:25:45.335Z,100.00
2023-02-21T19:26:47.067Z,100.00
2023-02-21T19:27:49.707Z,100.00
2023-02-21T19:28:52.314Z,100.00
2023-02-21T19:29:54.036Z,100.00
2023-02-21T19:30:56.673Z,100.00
2023-02-21T19:32:00.996Z,100.00
2023-02-21T19:33:03.114Z,100.00
2023-02-21T19:34:05.957Z,100.00
2023-02-21T19:35:08.408Z,100.00
2023-02-21T19:36:11.560Z,100.00
2023-02-21T19:37:13.194Z,100.00
2023-02-21T19:38:15.826Z,100.00
2023-02-21T19:39:17.549Z,100.00
2023-02-21T19:40:20.205Z,100.00
2023-02-21T19:41:22.824Z,100.00
2023-02-21T19:42:24.458Z,100.00
2023-02-21T19:43:27.084Z,100.00
2023-02-21T19:44:29.266Z,100.00
2023-02-21T19:45:31.890Z,100.00
2023-02-21T19:46:33.759Z,100.00
2023-02-21T19:47:37.697Z,100.00
2023-02-21T19:48:39.341Z,100.00
2023-02-21T19:49:45.817Z,100.00
2023-02-21T19:50:47.473Z,100.00
2023-02-21T19:51:51.247Z,100.00
2023-02-21T19:52:52.983Z,100.00
2023-02-21T19:53:56.163Z,100.00
2023-02-21T19:54:57.827Z,100.00
2023-02-21T19:56:00.558Z,100.00
2023-02-21T19:57:03.193Z,100.00
2023-02-21T19:58:07.332Z,100.00
2023-02-21T19:59:08.992Z,100.00
2023-02-21T20:00:12.812Z,100.00
2023-02-21T20:01:15.825Z,100.00
2023-02-21T20:02:17.743Z,100.00
2023-02-21T20:03:21.743Z,100.00
2023-02-21T20:04:24.375Z,100.00
2023-02-21T20:05:27.154Z,100.00
2023-02-21T20:06:29.863Z,100.00
2023-02-21T20:07:31.493Z,100.00
2023-02-21T20:08:34.126Z,100.00
2023-02-21T20:09:36.759Z,100.00
2023-02-21T20:10:39.579Z,100.00
2023-02-21T20:11:41.422Z,100.00
2023-02-21T20:12:44.166Z,100.00
2023-02-21T20:13:45.912Z,100.00
2023-02-21T20:14:48.724Z,100.00
2023-02-21T20:15:50.861Z,100.00
2023-02-21T20:16:54.361Z,100.00
2023-02-21T20:17:56.062Z,100.00
2023-02-21T20:19:00.052Z,100.00
2023-02-21T20:20:01.908Z,100.00
2023-02-21T20:21:04.856Z,100.00
2023-02-21T20:22:06.622Z,100.00
2023-02-21T20:23:10.481Z,100.00
2023-02-21T20:24:12.202Z,100.00
2023-02-21T20:25:14.952Z,100.00
2023-02-21T20:26:17.628Z,100.00
2023-02-21T20:27:19.369Z,100.00
2023-02-21T20:28:22.120Z,100.00
2023-02-21T20:29:25.783Z,100.00
2023-02-21T20:30:28.569Z,100.00
2023-02-21T20:31:32.553Z,100.00
2023-02-21T20:32:35.585Z,100.00
2023-02-21T20:33:38.204Z,100.00
2023-02-21T20:34:42.272Z,100.00
2023-02-21T20:35:44.138Z,100.00
2023-02-21T20:36:47.822Z,100.00
2023-02-21T20:37:50.799Z,100.00
2023-02-21T20:38:53.428Z,100.00
2023-02-21T20:39:55.252Z,100.00
2023-02-21T20:40:57.909Z,100.00
2023-02-21T20:42:00.842Z,100.00
2023-02-21T20:43:03.595Z,100.00
2023-02-21T20:44:05.347Z,100.00
2023-02-21T20:45:10.419Z,100.00
2023-02-21T20:46:13.202Z,100.00
2023-02-21T20:47:14.859Z,100.00
2023-02-21T20:48:17.770Z,100.00
2023-02-21T20:49:21.370Z,100.00
2023-02-21T20:50:25.584Z,100.00
2023-02-21T20:51:28.901Z,100.00
2023-02-21T20:52:31.573Z,100.00
2023-02-21T20:53:33.301Z,100.00
2023-02-21T20:54:35.893Z,100.00
2023-02-21T20:55:37.523Z,100.00
2023-02-21T20:56:40.963Z,100.00
2023-02-21T20:57:42.660Z,100.00
2023-02-21T20:58:45.533Z,100.00
2023-02-21T20:59:48.153Z,100.00
2023-02-21T21:00:49.925Z,100.00
2023-02-21T21:01:52.548Z,100.00
2023-02-21T21:02:54.199Z,100.00
2023-02-21T21:03:57.161Z,100.00
2023-02-21T21:04:58.894Z,100.00
2023-02-21T21:06:03.048Z,100.00
2023-02-21T21:07:06.467Z,100.00
2023-02-21T21:08:09.171Z,100.00
2023-02-21T21:09:17.742Z,100.00
2023-02-21T21:10:20.488Z,100.00
2023-02-21T21:11:22.232Z,100.00
2023-02-21T21:12:24.910Z,100.00
2023-02-21T21:13:26.586Z,100.00
2023-02-21T21:14:30.061Z,100.00
2023-02-21T21:15:32.683Z,100.00
2023-02-21T21:16:35.061Z,100.00
2023-02-21T21:17:39.046Z,100.00
2023-02-21T21:18:41.507Z,100.00
2023-02-21T21:19:44.882Z,100.00
2023-02-21T21:20:46.541Z,100.00
2023-02-21T21:21:51.495Z,100.00
2023-02-21T21:22:53.120Z,100.00
2023-02-21T21:23:56.440Z,100.00
2023-02-21T21:24:58.190Z,100.00
2023-02-21T21:26:01.946Z,100.00
2023-02-21T21:27:08.377Z,100.00
2023-02-21T21:28:13.131Z,100.00
2023-02-21T21:29:15.489Z,100.00
2023-02-21T21:30:22.687Z,100.00
2023-02-21T21:31:25.555Z,100.00
2023-02-21T21:32:27.355Z,100.00
2023-02-21T21:33:30.111Z,100.00
2023-02-21T21:34:32.254Z,100.00
2023-02-21T21:35:34.953Z,100.00
2023-02-21T21:36:36.606Z,100.00
2023-02-21T21:37:40.602Z,100.00
2023-02-21T21:38:42.639Z,100.00
2023-02-21T21:39:45.595Z,100.00
2023-02-21T21:40:48.036Z,100.00
2023-02-21T21:41:52.773Z,100.00
2023-02-21T21:42:59.777Z,100.00
2023-02-21T21:44:02.134Z,100.00
2023-02-21T21:45:08.038Z,100.00
2023-02-21T21:46:10.032Z,100.00
2023-02-21T21:47:15.529Z,100.00
2023-02-21T21:48:19.673Z,100.00
2023-02-21T21:49:22.653Z,100.00
2023-02-21T21:50:25.360Z,100.00
2023-02-21T21:51:28.531Z,100.00
2023-02-21T21:52:31.174Z,100.00
2023-02-21T21:53:35.142Z,100.00
2023-02-21T21:54:37.628Z,100.00
2023-02-21T21:55:40.348Z,100.00
2023-02-21T21:56:42.292Z,100.00
2023-02-21T21:57:45.034Z,100.00
2023-02-21T21:58:46.797Z,100.00
2023-02-21T21:59:49.833Z,100.00
2023-02-21T22:00:51.591Z,100.00
2023-02-21T22:01:57.752Z,100.00
2023-02-21T22:03:01.823Z,100.00
2023-02-21T22:04:04.911Z,100.00
2023-02-21T22:05:06.895Z,100.00
2023-02-21T22:06:10.960Z,100.00
2023-02-21T22:07:12.873Z,100.00
2023-02-21T22:08:17.860Z,100.00
2023-02-21T22:09:21.006Z,100.00
2023-02-21T22:10:24.800Z,100.00
2023-02-21T22:11:26.478Z,100.00
2023-02-21T22:12:29.683Z,100.00
2023-02-21T22:13:33.781Z,100.00
2023-02-21T22:14:36.432Z,100.00
2023-02-21T22:15:38.190Z,100.00
2023-02-21T22:16:42.420Z,100.00
2023-02-21T22:17:44.354Z,100.00
2023-02-21T22:18:47.545Z,100.00
2023-02-21T22:19:50.479Z,100.00
2023-02-21T22:20:55.632Z,100.00
2023-02-21T22:21:59.209Z,100.00
2023-02-21T22:23:01.987Z,100.00
2023-02-21T22:24:04.849Z,100.00
2023-02-21T22:25:11.543Z,100.00
2023-02-21T22:26:18.343Z,100.00
2023-02-21T22:27:20.954Z,100.00
2023-02-21T22:28:23.575Z,100.00
2023-02-21T22:29:25.211Z,100.00
2023-02-21T22:30:27.867Z,100.00
2023-02-21T22:31:29.522Z,100.00
2023-02-21T22:32:32.229Z,100.00
2023-02-21T22:33:34.360Z,100.00
2023-02-21T22:34:36.949Z,100.00
2023-02-21T22:35:38.642Z,100.00
2023-02-21T22:36:41.247Z,100.00
2023-02-21T22:37:44.445Z,100.00
2023-02-21T22:38:49.300Z,100.00
2023-02-21T22:39:50.918Z,100.00
2023-02-21T22:40:59.833Z,100.00
2023-02-21T22:42:05.163Z,100.00
2023-02-21T22:43:08.819Z,100.00
2023-02-21T22:44:10.726Z,100.00
2023-02-21T22:45:13.478Z,100.00
2023-02-21T22:46:15.285Z,100.00
2023-02-21T22:47:18.978Z,100.00
2023-02-21T22:48:21.141Z,100.00
2023-02-21T22:49:24.120Z,100.00
2023-02-21T22:50:25.841Z,100.00
2023-02-21T22:51:28.778Z,100.00
2023-02-21T22:52:30.433Z,100.00
2023-02-21T22:53:33.062Z,100.00
2023-02-21T22:54:35.060Z,100.00
2023-02-21T22:55:38.152Z,100.00
2023-02-21T22:56:50.614Z,100.00
2023-02-21T22:57:54.103Z,100.00
2023-02-21T22:58:56.804Z,100.00
2023-02-21T22:59:59.467Z,100.00
2023-02-21T23:01:01.094Z,100.00
2023-02-21T23:02:04.114Z,100.00
2023-02-21T23:03:12.651Z,100.00
2023-02-21T23:04:25.004Z,100.00
2023-02-21T23:05:26.804Z,100.00
2023-02-21T23:06:29.421Z,100.00
2023-02-21T23:07:31.274Z,100.00
2023-02-21T23:08:35.190Z,100.00
2023-02-21T23:09:37.098Z,100.00
2023-02-21T23:10:40.529Z,100.00
2023-02-21T23:11:48.833Z,100.00
2023-02-21T23:12:52.410Z,100.00
2023-02-21T23:13:54.177Z,100.00
2023-02-21T23:14:56.785Z,100.00
2023-02-21T23:15:58.910Z,100.00
2023-02-21T23:17:01.856Z,100.00
2023-02-21T23:18:03.824Z,100.00
2023-02-21T23:19:07.015Z,100.00
2023-02-21T23:20:15.687Z,100.00
2023-02-21T23:21:22.867Z,100.00
2023-02-21T23:22:25.084Z,100.00
2023-02-21T23:23:29.041Z,100.00
2023-02-21T23:24:30.668Z,100.00
2023-02-21T23:25:35.969Z,100.00
2023-02-21T23:26:43.997Z,100.00
2023-02-21T23:27:48.719Z,100.00
2023-02-21T23:28:50.391Z,100.00
2023-02-21T23:29:54.081Z,100.00
2023-02-21T23:30:57.962Z,100.00
2023-02-21T23:32:09.363Z,100.00
2023-02-21T23:33:14.982Z,100.00
2023-02-21T23:34:16.626Z,100.00
2023-02-21T23:35:19.237Z,100.00
2023-02-21T23:36:22.573Z,100.00
2023-02-21T23:37:25.416Z,100.00
2023-02-21T23:38:29.011Z,100.00
2023-02-21T23:39:31.624Z,100.00
2023-02-21T23:40:39.140Z,100.00
2023-02-21T23:41:42.402Z,100.00
2023-02-21T23:42:45.335Z,100.00
2023-02-21T23:43:51.304Z,100.00
2023-02-21T23:44:52.931Z,100.00
2023-02-21T23:45:56.059Z,100.00
2023-02-21T23:46:59.262Z,100.00
2023-02-21T23:48:01.914Z,100.00
2023-02-21T23:49:03.593Z,100.00
2023-02-21T23:50:07.743Z,100.00
2023-02-21T23:51:10.416Z,100.00
2023-02-21T23:52:12.080Z,100.00
2023-02-21T23:53:15.586Z,100.00
2023-02-21T23:54:17.960Z,100.00
2023-02-21T23:55:24.929Z,100.00
2023-02-21T23:56:27.486Z,100.00
2023-02-21T23:57:31.320Z,100.00
2023-02-21T23:58:32.977Z,100.00
2023-02-21T23:59:37.060Z,100.00
